createdAt,value
2019-01-14T00:01:54.056Z,2.20
2019-01-14T00:04:24.533Z,2.20
2019-01-14T00:06:55.519Z,2.10
2019-01-14T00:09:31.102Z,2.10
2019-01-14T00:11:58.728Z,2.10
2019-01-14T00:14:29.508Z,2.20
2019-01-14T00:17:00.267Z,2.20
2019-01-14T00:19:30.895Z,2.30
2019-01-14T00:22:01.511Z,2.10
2019-01-14T00:24:32.183Z,2.10
2019-01-14T00:27:06.066Z,2.00
2019-01-14T00:29:36.883Z,2.10
2019-01-14T00:32:07.724Z,2.10
2019-01-14T00:34:38.494Z,2.10
2019-01-14T00:37:09.101Z,2.10
2019-01-14T00:39:39.934Z,2.10
2019-01-14T00:42:10.790Z,1.70
2019-01-14T00:44:41.533Z,1.60
2019-01-14T00:47:12.924Z,1.70
2019-01-14T00:49:43.778Z,1.60
2019-01-14T00:52:16.098Z,1.60
2019-01-14T00:54:49.663Z,1.60
2019-01-14T00:57:20.447Z,1.60
2019-01-14T00:59:51.423Z,1.60
2019-01-14T01:02:22.354Z,1.70
2019-01-14T01:04:53.972Z,1.70
2019-01-14T01:07:24.827Z,1.70
2019-01-14T01:09:55.736Z,1.70
2019-01-14T01:12:26.741Z,1.80
2019-01-14T01:14:57.736Z,1.90
2019-01-14T01:17:30.442Z,1.90
2019-01-14T01:20:04.042Z,2.00
2019-01-14T01:22:34.725Z,2.10
2019-01-14T01:25:07.278Z,2.10
2019-01-14T01:27:37.869Z,2.10
2019-01-14T01:30:11.100Z,2.20
2019-01-14T01:32:44.282Z,2.10
2019-01-14T01:35:15.725Z,2.10
2019-01-14T01:37:46.545Z,2.00
2019-01-14T01:40:22.364Z,2.00
2019-01-14T01:42:53.406Z,2.00
2019-01-14T01:45:26.852Z,1.90
2019-01-14T01:47:57.685Z,2.00
2019-01-14T01:50:28.213Z,2.10
2019-01-14T01:52:58.869Z,2.20
2019-01-14T01:55:30.184Z,2.20
2019-01-14T01:58:01.767Z,2.20
2019-01-14T02:00:32.404Z,2.30
2019-01-14T02:03:03.491Z,2.30
2019-01-14T02:05:36.476Z,2.20
2019-01-14T02:08:07.324Z,2.20
2019-01-14T02:10:38.162Z,2.20
2019-01-14T02:13:09.012Z,2.10
2019-01-14T02:15:39.684Z,2.20
2019-01-14T02:18:10.184Z,2.20
2019-01-14T02:20:40.820Z,2.20
2019-01-14T02:23:14.641Z,2.20
2019-01-14T02:25:46.480Z,2.10
2019-01-14T02:28:19.979Z,2.20
2019-01-14T02:30:53.864Z,2.20
2019-01-14T02:33:24.416Z,2.20
2019-01-14T02:35:55.287Z,2.20
2019-01-14T02:38:28.231Z,2.10
2019-01-14T02:40:58.825Z,2.10
2019-01-14T02:43:29.639Z,2.00
2019-01-14T02:46:00.196Z,1.90
2019-01-14T02:48:31.064Z,1.80
2019-01-14T02:51:01.737Z,1.70
2019-01-14T02:53:32.627Z,1.80
2019-01-14T02:56:03.285Z,1.70
2019-01-14T02:58:33.797Z,1.60
2019-01-14T03:01:04.852Z,1.50
2019-01-14T03:03:35.610Z,1.50
2019-01-14T03:06:06.145Z,1.30
2019-01-14T03:08:37.061Z,1.30
2019-01-14T03:11:07.964Z,1.20
2019-01-14T03:13:38.923Z,1.20
2019-01-14T03:16:09.555Z,1.20
2019-01-14T03:18:40.144Z,1.20
2019-01-14T03:21:10.683Z,1.20
2019-01-14T03:23:41.192Z,1.10
2019-01-14T03:26:11.832Z,1.30
2019-01-14T03:28:42.633Z,1.10
2019-01-14T03:31:13.444Z,1.10
2019-01-14T03:33:44.094Z,1.10
2019-01-14T03:36:14.772Z,1.20
2019-01-14T03:38:45.385Z,1.20
2019-01-14T03:41:16.244Z,1.10
2019-01-14T03:43:46.723Z,1.00
2019-01-14T03:46:17.363Z,1.00
2019-01-14T03:48:47.920Z,1.00
2019-01-14T03:51:18.408Z,1.00
2019-01-14T03:53:49.312Z,1.00
2019-01-14T03:56:20.081Z,1.10
2019-01-14T03:58:50.699Z,1.10
2019-01-14T04:01:21.548Z,1.20
2019-01-14T04:03:52.586Z,1.10
2019-01-14T04:06:24.126Z,1.20
2019-01-14T04:08:54.863Z,1.20
2019-01-14T04:11:26.115Z,1.30
2019-01-14T04:13:56.639Z,1.30
2019-01-14T04:16:27.503Z,1.40
2019-01-14T04:18:58.220Z,1.20
2019-01-14T04:21:28.648Z,1.10
2019-01-14T04:23:59.496Z,1.20
2019-01-14T04:26:30.372Z,1.10
2019-01-14T04:29:00.980Z,1.00
2019-01-14T04:31:31.479Z,1.00
2019-01-14T04:34:02.342Z,0.90
2019-01-14T04:36:33.069Z,0.90
2019-01-14T04:39:07.022Z,0.90
2019-01-14T04:41:37.964Z,0.80
2019-01-14T04:44:08.914Z,0.90
2019-01-14T04:46:39.876Z,0.80
2019-01-14T04:49:10.613Z,0.70
2019-01-14T04:51:41.325Z,0.70
2019-01-14T04:54:12.146Z,0.70
2019-01-14T04:56:42.885Z,0.80
2019-01-14T04:59:13.588Z,0.70
2019-01-14T05:01:44.546Z,0.60
2019-01-14T05:04:15.392Z,0.70
2019-01-14T05:06:46.192Z,0.70
2019-01-14T05:09:17.127Z,0.60
2019-01-14T05:11:47.949Z,0.60
2019-01-14T05:14:18.781Z,0.60
2019-01-14T05:16:49.246Z,0.50
2019-01-14T05:19:20.141Z,0.50
2019-01-14T05:21:50.985Z,0.40
2019-01-14T05:24:21.901Z,0.50
2019-01-14T05:26:52.564Z,0.40
2019-01-14T05:29:23.561Z,0.50
2019-01-14T05:31:54.409Z,0.50
2019-01-14T05:34:25.592Z,0.30
2019-01-14T05:36:58.536Z,0.50
2019-01-14T05:39:29.677Z,0.40
2019-01-14T05:42:00.291Z,0.40
2019-01-14T05:44:31.536Z,0.30
2019-01-14T05:47:02.270Z,0.20
2019-01-14T05:49:33.171Z,0.10
2019-01-14T05:52:04.161Z,0.20
2019-01-14T05:54:35.112Z,0.20
2019-01-14T05:57:06.008Z,0.10
2019-01-14T05:59:37.822Z,0.10
2019-01-14T06:02:11.702Z,0.10
2019-01-14T06:04:45.133Z,0.10
2019-01-14T06:07:15.720Z,0.00
2019-01-14T06:09:47.215Z,0.20
2019-01-14T06:12:19.942Z,0.20
2019-01-14T06:14:51.997Z,0.10
2019-01-14T06:17:22.512Z,0.00
2019-01-14T06:19:54.200Z,0.20
2019-01-14T06:22:25.344Z,0.10
2019-01-14T06:24:55.925Z,0.00
2019-01-14T06:27:27.664Z,0.10
2019-01-14T06:30:01.033Z,0.20
2019-01-14T06:32:32.785Z,0.10
2019-01-14T06:35:04.768Z,0.10
2019-01-14T06:37:35.677Z,0.00
2019-01-14T06:40:08.140Z,0.10
2019-01-14T06:42:38.621Z,0.10
2019-01-14T06:45:09.891Z,0.30
2019-01-14T06:47:40.695Z,0.30
2019-01-14T06:50:15.531Z,0.40
2019-01-14T06:52:46.386Z,0.40
2019-01-14T06:55:17.717Z,0.30
2019-01-14T06:57:48.254Z,0.40
2019-01-14T07:00:25.393Z,0.40
2019-01-14T07:02:59.200Z,0.40
2019-01-14T07:05:30.069Z,0.20
2019-01-14T07:08:04.897Z,0.30
2019-01-14T07:10:35.912Z,0.30
2019-01-14T07:13:10.167Z,0.30
2019-01-14T07:15:40.936Z,0.40
2019-01-14T07:18:11.607Z,0.30
2019-01-14T07:20:45.479Z,0.30
2019-01-14T07:23:16.475Z,0.20
2019-01-14T07:25:48.239Z,0.20
2019-01-14T07:28:22.591Z,0.10
2019-01-14T07:30:58.531Z,0.20
2019-01-14T07:33:29.117Z,0.10
2019-01-14T07:36:00.791Z,0.20
2019-01-14T07:38:36.892Z,0.20
2019-01-14T07:41:07.484Z,0.30
2019-01-14T07:43:39.017Z,0.30
2019-01-14T07:46:09.533Z,0.30
2019-01-14T07:48:42.057Z,0.30
2019-01-14T07:51:14.017Z,0.30
2019-01-14T07:53:47.839Z,0.40
2019-01-14T07:56:21.172Z,0.30
2019-01-14T07:58:52.180Z,0.40
2019-01-14T08:01:25.132Z,0.50
2019-01-14T08:03:57.404Z,0.40
2019-01-14T08:06:29.628Z,0.50
2019-01-14T08:09:00.205Z,0.30
2019-01-14T08:11:32.389Z,0.40
2019-01-14T08:14:06.257Z,0.40
2019-01-14T08:16:40.399Z,0.40
2019-01-14T08:19:11.087Z,0.30
2019-01-14T08:21:42.984Z,0.50
2019-01-14T08:24:13.753Z,0.40
2019-01-14T08:26:44.725Z,0.60
2019-01-14T08:29:16.755Z,0.50
2019-01-14T08:31:49.156Z,0.40
2019-01-14T08:34:25.774Z,0.40
2019-01-14T08:37:00.688Z,0.50
2019-01-14T08:39:29.260Z,0.70
2019-01-14T08:42:03.768Z,0.70
2019-01-14T08:44:42.067Z,0.80
2019-01-14T08:47:12.811Z,0.80
2019-01-14T08:49:44.328Z,0.90
2019-01-14T08:52:15.344Z,1.00
2019-01-14T08:54:46.360Z,1.10
2019-01-14T08:57:19.473Z,1.20
2019-01-14T08:59:50.525Z,1.10
2019-01-14T09:02:21.606Z,1.20
2019-01-14T09:04:52.978Z,1.30
2019-01-14T09:07:24.020Z,1.40
2019-01-14T09:09:55.055Z,1.40
2019-01-14T09:12:26.266Z,1.50
2019-01-14T09:14:57.333Z,1.60
2019-01-14T09:17:28.631Z,1.80
2019-01-14T09:20:00.518Z,1.80
2019-01-14T09:22:31.740Z,1.80
2019-01-14T09:25:02.694Z,1.80
2019-01-14T09:27:33.994Z,1.80
2019-01-14T09:30:08.037Z,1.80
2019-01-14T09:32:39.510Z,1.70
2019-01-14T09:35:10.273Z,1.70
2019-01-14T09:37:45.424Z,1.80
2019-01-14T09:40:18.093Z,1.90
2019-01-14T09:42:49.355Z,2.00
2019-01-14T09:45:20.757Z,2.00
2019-01-14T09:47:52.822Z,2.00
2019-01-14T09:50:24.645Z,2.10
2019-01-14T09:52:57.629Z,2.20
2019-01-14T09:55:28.360Z,2.30
2019-01-14T09:57:59.799Z,2.40
2019-01-14T10:00:36.863Z,2.50
2019-01-14T10:03:07.699Z,2.60
2019-01-14T10:05:38.797Z,2.60
2019-01-14T10:08:15.279Z,2.60
2019-01-14T10:10:49.992Z,2.50
2019-01-14T10:13:20.524Z,2.60
2019-01-14T10:15:57.085Z,2.60
2019-01-14T10:18:28.301Z,2.80
2019-01-14T10:21:00.672Z,2.90
2019-01-14T10:23:34.540Z,3.00
2019-01-14T10:26:07.395Z,3.00
2019-01-14T10:28:44.330Z,3.10
2019-01-14T10:34:14.928Z,3.20
2019-01-14T10:36:46.442Z,3.20
2019-01-14T10:39:17.296Z,3.30
2019-01-14T10:41:48.122Z,3.20
2019-01-14T10:44:19.175Z,3.10
2019-01-14T10:47:04.769Z,2.90
2019-01-14T10:50:05.580Z,2.80
2019-01-14T10:52:38.728Z,2.70
2019-01-14T10:55:12.707Z,2.70
2019-01-14T10:57:50.758Z,2.70
2019-01-14T11:00:23.796Z,2.70
2019-01-14T11:02:54.537Z,2.80
2019-01-14T11:05:28.054Z,3.00
2019-01-14T11:07:59.669Z,3.10
2019-01-14T11:10:37.378Z,3.10
2019-01-14T11:13:12.545Z,3.20
2019-01-14T11:15:43.287Z,3.20
2019-01-14T11:18:14.400Z,3.30
2019-01-14T11:20:46.116Z,3.30
2019-01-14T11:23:16.777Z,3.40
2019-01-14T11:25:47.790Z,3.40
2019-01-14T11:28:22.244Z,3.40
2019-01-14T11:30:53.001Z,3.40
2019-01-14T11:33:26.870Z,3.30
2019-01-14T11:35:57.331Z,3.30
2019-01-14T11:39:14.258Z,3.30
2019-01-14T11:41:49.173Z,3.40
2019-01-14T11:44:19.810Z,3.40
2019-01-14T11:46:52.461Z,3.40
2019-01-14T11:49:23.304Z,3.40
2019-01-14T11:51:54.090Z,3.50
2019-01-14T11:54:29.221Z,3.50
2019-01-14T11:56:59.872Z,3.50
2019-01-14T11:59:31.526Z,3.60
2019-01-14T12:02:03.250Z,3.60
2019-01-14T12:04:40.070Z,3.60
2019-01-14T12:07:14.942Z,3.60
2019-01-14T12:09:46.543Z,3.70
2019-01-14T12:12:17.537Z,3.70
2019-01-14T12:14:50.086Z,3.70
2019-01-14T12:17:23.674Z,3.80
2019-01-14T12:20:04.766Z,3.70
2019-01-14T12:22:38.024Z,3.70
2019-01-14T12:25:08.897Z,3.50
2019-01-14T12:27:42.191Z,3.40
2019-01-14T12:30:17.072Z,3.30
2019-01-14T12:32:48.422Z,3.40
2019-01-14T12:35:18.951Z,3.40
2019-01-14T12:37:50.035Z,3.30
2019-01-14T12:40:21.014Z,3.30
2019-01-14T12:43:04.377Z,3.10
2019-01-14T12:45:38.166Z,3.10
2019-01-14T12:48:18.939Z,3.20
2019-01-14T12:50:50.065Z,3.20
2019-01-14T12:53:20.788Z,3.30
2019-01-14T12:55:51.656Z,3.30
2019-01-14T12:58:22.713Z,3.30
2019-01-14T13:00:53.384Z,3.30
2019-01-14T13:03:24.370Z,3.30
2019-01-14T13:05:56.736Z,3.30
2019-01-14T13:08:27.621Z,3.50
2019-01-14T13:10:58.694Z,3.60
2019-01-14T13:13:29.917Z,3.70
2019-01-14T13:16:00.593Z,3.60
2019-01-14T13:18:31.320Z,3.70
2019-01-14T13:21:02.001Z,3.70
2019-01-14T13:23:32.740Z,3.70
2019-01-14T13:26:03.244Z,3.80
2019-01-14T13:28:35.640Z,3.70
2019-01-14T13:31:06.107Z,3.60
2019-01-14T13:33:37.602Z,3.50
2019-01-14T13:36:10.289Z,3.40
2019-01-14T13:38:42.351Z,3.40
2019-01-14T13:41:12.944Z,3.40
2019-01-14T13:43:43.432Z,3.30
2019-01-14T13:46:14.052Z,3.40
2019-01-14T13:48:44.705Z,3.20
2019-01-14T13:51:17.885Z,3.20
2019-01-14T13:53:48.403Z,3.20
2019-01-14T13:56:18.798Z,3.20
2019-01-14T13:58:49.396Z,3.30
2019-01-14T14:01:20.186Z,3.30
2019-01-14T14:03:51.143Z,3.30
2019-01-14T14:06:21.843Z,3.30
2019-01-14T14:08:54.290Z,3.30
2019-01-14T14:11:25.112Z,3.20
2019-01-14T14:13:57.154Z,3.00
2019-01-14T14:16:27.674Z,3.10
2019-01-14T14:19:02.424Z,3.10
2019-01-14T14:21:32.811Z,3.10
2019-01-14T14:24:03.731Z,3.20
2019-01-14T14:26:34.592Z,3.20
2019-01-14T14:29:05.121Z,3.10
2019-01-14T14:31:36.802Z,3.10
2019-01-14T14:34:09.631Z,2.90
2019-01-14T14:36:40.194Z,2.90
2019-01-14T14:39:13.698Z,3.00
2019-01-14T14:41:48.197Z,3.10
2019-01-14T14:44:19.150Z,3.10
2019-01-14T14:46:52.817Z,3.10
2019-01-14T14:49:23.607Z,3.00
2019-01-14T14:51:59.927Z,3.10
2019-01-14T14:54:30.750Z,3.10
2019-01-14T14:57:01.525Z,3.10
2019-01-14T14:59:35.195Z,3.00
2019-01-14T15:02:05.763Z,3.00
2019-01-14T15:04:37.986Z,2.90
2019-01-14T15:07:08.581Z,2.90
2019-01-14T15:09:44.853Z,2.90
2019-01-14T15:12:23.194Z,2.90
2019-01-14T15:14:54.225Z,2.80
2019-01-14T15:17:24.914Z,2.80
2019-01-14T15:19:57.537Z,2.80
2019-01-14T15:22:27.812Z,2.90
2019-01-14T15:25:01.058Z,2.80
2019-01-14T15:27:31.921Z,2.80
2019-01-14T15:30:05.898Z,2.70
2019-01-14T15:32:36.518Z,2.60
2019-01-14T15:35:07.443Z,2.70
2019-01-14T15:37:39.765Z,2.60
2019-01-14T15:40:12.003Z,2.80
2019-01-14T15:42:42.613Z,2.90
2019-01-14T15:45:15.144Z,3.10
2019-01-14T15:47:45.917Z,3.00
2019-01-14T15:50:17.601Z,2.90
2019-01-14T15:52:48.196Z,2.80
2019-01-14T15:55:23.675Z,2.80
2019-01-14T15:57:54.085Z,2.80
2019-01-14T16:00:26.706Z,2.90
2019-01-14T16:02:58.944Z,2.90
2019-01-14T16:05:29.532Z,2.80
2019-01-14T16:08:05.019Z,3.10
2019-01-14T16:10:38.072Z,3.00
2019-01-14T16:13:18.771Z,3.00
2019-01-14T16:16:06.154Z,3.00
2019-01-14T16:18:38.598Z,3.00
2019-01-14T16:21:09.522Z,3.00
2019-01-14T16:28:26.422Z,3.10
2019-01-14T16:31:01.226Z,3.00
2019-01-14T16:33:34.102Z,3.20
2019-01-14T16:36:04.467Z,3.20
2019-01-14T16:38:36.791Z,3.10
2019-01-14T16:41:11.199Z,3.30
2019-01-14T16:43:43.383Z,3.30
2019-01-14T16:46:30.682Z,3.40
2019-01-14T16:49:32.317Z,3.30
2019-01-14T16:52:14.168Z,3.30
2019-01-14T16:54:54.529Z,3.40
2019-01-14T16:57:26.346Z,3.50
2019-01-14T16:59:58.155Z,3.30
2019-01-14T17:02:28.687Z,3.10
2019-01-14T17:04:59.391Z,3.30
2019-01-14T17:07:29.907Z,3.20
2019-01-14T17:10:02.751Z,3.40
2019-01-14T17:12:34.383Z,3.20
2019-01-14T17:15:08.510Z,3.20
2019-01-14T17:17:39.440Z,3.20
2019-01-14T17:20:13.492Z,3.30
2019-01-14T17:22:44.338Z,3.30
2019-01-14T17:25:15.368Z,3.20
2019-01-14T17:27:45.840Z,3.30
2019-01-14T17:30:16.577Z,3.10
2019-01-14T17:32:47.003Z,3.50
2019-01-14T17:35:21.840Z,3.20
2019-01-14T17:37:55.363Z,3.20
2019-01-14T17:40:32.273Z,3.20
2019-01-14T17:42:58.124Z,3.10
2019-01-14T17:45:31.771Z,3.10
2019-01-14T17:48:02.231Z,3.30
2019-01-14T17:50:34.520Z,3.50
2019-01-14T17:53:11.180Z,3.30
2019-01-14T17:55:38.656Z,3.20
2019-01-14T17:58:09.238Z,3.00
2019-01-14T18:00:39.923Z,3.00
2019-01-14T18:03:10.347Z,3.20
2019-01-14T18:06:39.931Z,3.30
2019-01-14T18:09:21.124Z,3.30
2019-01-14T18:11:58.079Z,3.30
2019-01-14T18:14:28.527Z,3.20
2019-01-14T18:17:16.225Z,3.20
2019-01-14T18:19:47.257Z,3.20
2019-01-14T18:22:17.880Z,3.20
2019-01-14T18:24:51.084Z,3.00
2019-01-14T18:30:20.244Z,2.90
2019-01-14T18:32:52.241Z,3.10
2019-01-14T18:35:26.217Z,2.90
2019-01-14T18:38:10.490Z,3.20
2019-01-14T18:40:47.161Z,3.00
2019-01-14T18:43:18.495Z,3.30
2019-01-14T18:45:49.046Z,3.00
2019-01-14T18:48:19.571Z,3.00
2019-01-14T18:50:50.280Z,3.00
2019-01-14T18:53:20.727Z,2.90
2019-01-14T18:55:51.543Z,2.70
2019-01-14T18:58:22.306Z,3.00
2019-01-14T19:00:53.220Z,3.10
2019-01-14T19:03:23.680Z,3.00
2019-01-14T19:05:54.233Z,2.90
2019-01-14T19:08:24.854Z,2.90
2019-01-14T19:10:55.383Z,3.10
2019-01-14T19:13:26.123Z,2.90
2019-01-14T19:15:56.480Z,2.90
2019-01-14T19:18:27.311Z,2.80
2019-01-14T19:20:57.833Z,2.70
2019-01-14T19:23:28.505Z,2.80
2019-01-14T19:26:01.778Z,2.90
2019-01-14T19:28:48.664Z,3.00
2019-01-14T19:31:20.804Z,3.00
2019-01-14T19:33:51.336Z,3.00
2019-01-14T19:36:22.326Z,2.90
2019-01-14T19:38:52.747Z,2.70
2019-01-14T19:41:24.743Z,3.00
2019-01-14T19:43:55.351Z,2.90
2019-01-14T19:46:26.053Z,3.00
2019-01-14T19:48:56.512Z,2.90
2019-01-14T19:51:27.236Z,2.90
2019-01-14T19:53:57.724Z,2.80
2019-01-14T19:56:29.450Z,3.00
2019-01-14T19:59:00.470Z,3.10
2019-01-14T20:01:31.269Z,3.10
2019-01-14T20:04:01.849Z,3.20
2019-01-14T20:06:33.667Z,3.10
2019-01-14T20:09:07.969Z,3.00
2019-01-14T20:11:41.267Z,2.90
2019-01-14T20:14:12.664Z,3.00
2019-01-14T20:16:43.476Z,2.90
2019-01-14T20:19:14.038Z,2.80
2019-01-14T20:22:29.832Z,2.80
2019-01-14T20:25:01.270Z,2.80
2019-01-14T20:27:33.233Z,2.90
2019-01-14T20:30:19.201Z,2.80
2019-01-14T20:32:50.248Z,2.70
2019-01-14T20:35:21.411Z,2.60
2019-01-14T20:37:52.157Z,2.60
2019-01-14T20:40:28.973Z,2.60
2019-01-14T20:43:12.762Z,2.60
2019-01-14T20:45:44.294Z,2.60
2019-01-14T20:48:15.883Z,2.50
2019-01-14T20:50:46.588Z,2.50
2019-01-14T20:53:18.548Z,2.60
2019-01-14T20:55:49.831Z,2.60
2019-01-14T20:58:20.563Z,2.50
2019-01-14T21:00:52.172Z,2.50
2019-01-14T21:03:23.067Z,2.60
2019-01-14T21:05:53.588Z,2.50
2019-01-14T21:08:24.089Z,2.60
2019-01-14T21:10:54.523Z,2.50
2019-01-14T21:13:25.159Z,2.50
2019-01-14T21:16:02.573Z,2.40
2019-01-14T21:18:27.773Z,2.30
2019-01-14T21:21:35.927Z,2.30
2019-01-14T21:24:06.219Z,2.50
2019-01-14T21:26:36.540Z,2.30
2019-01-14T21:29:06.877Z,2.60
2019-01-14T21:31:37.371Z,2.40
2019-01-14T21:34:07.813Z,2.50
2019-01-14T21:36:38.280Z,2.40
2019-01-14T21:39:11.685Z,2.40
2019-01-14T21:41:41.973Z,2.40
2019-01-14T21:44:12.379Z,2.40
2019-01-14T21:46:43.140Z,2.30
2019-01-14T21:49:13.711Z,2.00
2019-01-14T21:51:43.959Z,2.10
2019-01-14T21:54:14.654Z,1.90
2019-01-14T21:56:44.819Z,2.00
2019-01-14T21:59:15.632Z,1.90
2019-01-14T22:01:46.047Z,1.80
2019-01-14T22:04:16.940Z,2.00
2019-01-14T22:06:47.327Z,1.90
2019-01-14T22:09:17.848Z,1.90
2019-01-14T22:11:48.118Z,1.70
2019-01-14T22:14:18.482Z,1.80
2019-01-14T22:16:48.956Z,1.90
2019-01-14T22:19:19.240Z,1.90
2019-01-14T22:21:49.363Z,1.60
2019-01-14T22:24:19.632Z,1.80
2019-01-14T22:26:49.803Z,1.70
2019-01-14T22:29:20.306Z,1.70
2019-01-14T22:31:51.690Z,1.90
2019-01-14T22:34:22.020Z,1.90
2019-01-14T22:36:52.167Z,1.90
2019-01-14T22:39:22.506Z,1.90
2019-01-14T22:41:53.275Z,1.80
2019-01-14T22:44:23.748Z,1.80
2019-01-14T22:46:54.358Z,1.90
2019-01-14T22:49:24.656Z,1.80
2019-01-14T22:51:55.212Z,1.90
2019-01-14T22:54:25.614Z,1.80
2019-01-14T22:56:56.063Z,1.90
2019-01-14T22:59:26.587Z,1.80
2019-01-14T23:01:57.163Z,1.90
2019-01-14T23:04:27.759Z,1.80
2019-01-14T23:06:58.492Z,1.90
2019-01-14T23:09:28.895Z,2.00
2019-01-14T23:11:59.404Z,1.90
2019-01-14T23:14:30.148Z,1.80
2019-01-14T23:17:01.028Z,1.60
2019-01-14T23:19:31.540Z,1.70
2019-01-14T23:22:02.176Z,1.70
2019-01-14T23:24:32.495Z,1.70
2019-01-14T23:27:03.411Z,1.60
2019-01-14T23:29:33.866Z,1.60
2019-01-14T23:32:04.834Z,1.40
2019-01-14T23:34:35.387Z,1.60
2019-01-14T23:37:06.025Z,1.60
2019-01-14T23:39:36.651Z,1.50
2019-01-14T23:42:07.347Z,1.40
2019-01-14T23:44:37.819Z,1.40
2019-01-14T23:47:08.383Z,1.40
2019-01-14T23:49:38.811Z,1.20
2019-01-14T23:52:10.272Z,1.00
2019-01-14T23:54:40.800Z,0.90
2019-01-14T23:57:11.488Z,1.00
2019-01-14T23:59:42.097Z,1.00
